Appleton, Idaho
Current Conditions -  °F | °C
As of 5:53 AM on Thursday 30 Oct 2014 (Local Time) from KJER Reporting Station
Clear Clear  
Wind Chill: 38°   Ceiling: Unl
Heat Index: 44°   Visibility: 10mi
Dew Point: 35°   Wind: 13mph
Humidity: 71%   Direction: 60°ENE
Pressure: 30.22"   Gusts: NA
Location:  42.7238°N, 114.338°W
Report Text: KJER 301153Z AUTO 06011KT 10SM CLR 07/02 A3022 RMK AO2 SLP222 T00670017 10089 20067 58005
Loading
Personal Weather Stations






























Interactive Weather Map
Tropical Storm Tracking
New forecast layout! Learn more

10-Day Weather Forecast

Advertisements
Track Severe Weather on mobile